Latest Coastal Weather Observations for Rundle Island

IDQ60701

Issued at 8:35 pm EST Tuesday 21 October 2014 (issued every 10 minutes, with the page automatically refreshed every 10 minutes)

About coastal observations | Map of coastal stations | Coastal observations for QLD | Marine services | Other Formats
Station Details ID: 039322 Name: RUNDLE ISLAND Lat: -23.53 Lon: 151.28 Height: 19.8 m
Data from the previous 72 hours. | See also: Recent months at Rundle Island
Date/Time
EST
Temp

°C
Wind Pressure Rain
since 9am
mm
Weather Cloud Vis
km
Sea
Height
m
Swell
Dir
 
Speed
knots
Gust
knots
hPa Trend Height
m
Period
s
Dir
21/08:30pm 22.1 ESE 20 24 1024.0 - - - - - - - - -
21/08:00pm 22.3 ESE 20 23 1023.7 - - - - - - - - -
21/07:30pm 22.1 ESE 20 24 1023.5 - - - - - - - - -
21/07:00pm 21.9 ESE 20 23 1023.2 - - - - - - - - -
21/06:30pm 22.1 ESE 22 24 1022.9 - - - - - - - - -
21/06:00pm 22.1 ESE 21 24 1022.5 - - - - - - - - -
21/05:30pm 21.9 ESE 22 25 1022.1 - - - - - - - - -
21/05:00pm 22.2 ESE 21 23 1021.8 - - - - - - - - -
21/04:30pm 22.2 ESE 19 22 1021.9 - - - - - - - - -
21/04:00pm 22.0 ESE 18 22 1021.7 - - - - - - - - -
21/03:30pm 22.2 ESE 18 21 1021.7 - - - - - - - - -
21/03:00pm 22.3 ESE 18 21 1021.8 - - - - - - - - -
21/02:30pm 22.4 ESE 16 20 1022.0 - - - - - - - - -
21/02:00pm 22.4 SE 17 20 1022.4 - - - - - - - - -
21/01:30pm 22.6 SE 19 22 1022.5 - - - - - - - - -
21/01:00pm 22.4 SE 20 23 1023.0 - - - - - - - - -
21/12:30pm 22.3 SE 20 23 1023.3 - - - - - - - - -
21/12:00pm 22.4 SE 21 24 1023.5 - - - - - - - - -
21/11:30am 22.5 SE 23 26 1023.8 - - - - - - - - -
21/11:00am 22.4 SE 23 26 1024.3 - - - - - - - - -
21/10:30am 22.6 SE 21 24 1024.5 - - - - - - - - -
21/10:00am 22.5 SE 22 25 1024.7 - - - - - - - - -
21/09:30am 22.2 SE 21 25 1024.6 - - - - - - - - -
21/09:00am 21.7 SE 22 26 1024.6 - - - - - - - - -
21/08:30am 20.5 SE 22 27 1024.6 - - - - - - - - -
21/08:00am 20.8 SSE 20 23 1024.0 - - - - - - - - -
21/07:30am 21.1 SSE 19 23 1023.8 - - - - - - - - -
21/07:00am 20.9 SSE 18 21 1023.3 - - - - - - - - -
21/06:30am 21.1 SSE 19 22 1023.0 - - - - - - - - -
21/06:00am 21.2 SSE 19 22 1022.6 - - - - - - - - -
21/05:30am 21.8 SE 19 23 1022.4 - - - - - - - - -
21/05:00am 21.8 ESE 20 23 1022.0 - - - - - - - - -
21/04:30am 22.0 ESE 21 23 1021.7 - - - - - - - - -
21/04:00am 21.9 ESE 19 22 1021.5 - - - - - - - - -
21/03:30am 22.0 ESE 18 21 1021.6 - - - - - - - - -
21/03:00am 21.9 ESE 19 23 1021.6 - - - - - - - - -
21/02:30am 21.9 ESE 18 21 1021.4 - - - - - - - - -
21/02:00am 21.8 ESE 18 21 1021.6 - - - - - - - - -
21/01:30am 22.0 ESE 19 22 1021.8 - - - - - - - - -
21/01:00am 21.8 ESE 19 21 1022.1 - - - - - - - - -
21/12:30am 21.9 ESE 20 23 1022.5 - - - - - - - - -
21/12:00am 21.8 ESE 17 20 1022.9 - - - - - - - - -
 
Date/Time
EST
Temp

°C
Wind Pressure Rain
since 9am
mm
Weather Cloud Vis
km
Sea
Height
m
Swell
Dir
 
Speed
knots
Gust
knots
hPa Trend Height
m
Period
s
Dir
20/11:30pm 22.0 ESE 15 17 1023.4 - - - - - - - - -
20/11:00pm 21.9 ESE 16 18 1023.8 - - - - - - - - -
20/10:30pm 21.9 ESE 15 17 1023.8 - - - - - - - - -
20/10:00pm 22.3 ESE 14 17 1023.9 - - - - - - - - -
20/09:30pm 22.2 ESE 14 16 1023.9 - - - - - - - - -
20/09:00pm 21.7 E 15 17 1023.6 - - - - - - - - -
20/08:30pm 21.8 ESE 14 17 1023.3 - - - - - - - - -
20/08:00pm 21.8 ESE 15 18 1022.9 - - - - - - - - -
20/07:30pm 21.6 E 16 18 1022.2 - - - - - - - - -
20/07:00pm 21.6 E 17 20 1021.8 - - - - - - - - -
20/06:30pm 21.5 E 17 19 1021.4 - - - - - - - - -
20/06:00pm 21.6 E 17 21 1021.0 - - - - - - - - -
20/05:30pm 21.8 E 19 22 1020.5 - - - - - - - - -
20/05:00pm 21.7 E 20 24 1020.0 - - - - - - - - -
20/04:30pm 21.9 E 19 22 1020.0 - - - - - - - - -
20/04:00pm 22.0 E 17 19 1020.2 - - - - - - - - -
20/03:30pm 21.9 E 16 18 1020.3 - - - - - - - - -
20/03:00pm 22.1 E 15 18 1020.4 - - - - - - - - -
20/02:30pm 22.0 ESE 16 18 1020.6 - - - - - - - - -
20/02:00pm 22.1 ESE 15 17 1021.0 - - - - - - - - -
20/01:30pm 22.3 ESE 13 16 1021.3 - - - - - - - - -
20/01:00pm 22.2 SE 13 15 1021.8 - - - - - - - - -
20/12:30pm 22.1 SE 13 16 1022.2 - - - - - - - - -
20/12:00pm 21.7 SE 14 17 1022.8 - - - - - - - - -
20/11:30am 22.2 SE 13 16 1023.2 - - - - - - - - -
20/11:00am 21.6 SE 13 16 1023.5 - - - - - - - - -
20/10:30am 21.5 SE 13 16 1023.9 - - - - - - - - -
20/10:00am 21.4 SE 14 16 1024.1 - - - - - - - - -
20/09:30am 21.3 SE 15 18 1024.3 - - - - - - - - -
20/09:00am 21.1 SSE 16 19 1024.6 - - - - - - - - -
20/08:30am 21.2 SE 16 19 1024.5 - - - - - - - - -
20/08:00am 20.9 SSE 17 19 1024.4 - - - - - - - - -
20/07:30am 20.9 SSE 17 21 1024.2 - - - - - - - - -
20/07:00am 20.8 SSE 18 21 1023.8 - - - - - - - - -
20/06:30am 20.9 SSE 18 20 1023.5 - - - - - - - - -
20/06:00am 20.6 SSE 18 20 1023.1 - - - - - - - - -
20/05:30am 20.6 SSE 17 21 1022.7 - - - - - - - - -
20/05:00am 20.5 SSE 17 20 1022.6 - - - - - - - - -
20/04:30am 21.3 SE 15 18 1022.3 - - - - - - - - -
20/04:00am 21.0 SE 16 20 1022.1 - - - - - - - - -
20/03:30am 21.0 SE 17 21 1021.9 - - - - - - - - -
20/03:00am 21.1 SE 17 20 1021.9 - - - - - - - - -
20/02:30am 20.9 SE 17 20 1022.0 - - - - - - - - -
20/02:00am 21.1 ESE 16 18 1022.2 - - - - - - - - -
20/01:30am 21.0 ESE 15 18 1022.4 - - - - - - - - -
20/01:00am 21.1 ESE 16 18 1022.6 - - - - - - - - -
20/12:30am 21.3 ESE 16 19 1023.0 - - - - - - - - -
20/12:00am 21.3 ESE 17 20 1023.4 - - - - - - - - -
 
Date/Time
EST
Temp

°C
Wind Pressure Rain
since 9am
mm
Weather Cloud Vis
km
Sea
Height
m
Swell
Dir
 
Speed
knots
Gust
knots
hPa Trend Height
m
Period
s
Dir
19/11:30pm 21.5 ESE 18 21 1023.7 - - - - - - - - -
19/11:00pm 21.4 ESE 19 22 1023.9 - - - - - - - - -
19/10:30pm 21.6 ESE 21 25 1024.0 - - - - - - - - -
19/10:00pm 21.6 ESE 22 26 1024.0 - - - - - - - - -
19/09:30pm 21.8 ESE 22 26 1023.9 - - - - - - - - -
19/09:00pm 21.7 ESE 23 27 1023.8 - - - - - - - - -
19/08:30pm 21.9 ESE 24 28 1023.7 - - - - - - - - -
19/08:00pm 21.9 E 25 29 1023.1 - - - - - - - - -
19/07:30pm 21.9 E 25 29 1022.8 - - - - - - - - -
19/07:00pm 22.0 E 24 27 1022.8 - - - - - - - - -
19/06:30pm 21.9 E 25 28 1022.4 - - - - - - - - -
19/06:00pm 22.1 E 25 29 1022.1 - - - - - - - - -
19/05:30pm 22.2 E 26 30 1021.8 - - - - - - - - -
19/05:00pm 22.1 E 25 29 1021.5 - - - - - - - - -
19/04:30pm 22.3 E 24 27 1021.5 - - - - - - - - -
19/04:00pm 22.3 ESE 24 29 1021.4 - - - - - - - - -
19/03:30pm 22.3 E 23 26 1021.2 - - - - - - - - -
19/03:00pm 22.6 ESE 23 26 1021.2 - - - - - - - - -
19/02:30pm 22.7 ESE 24 28 1021.4 - - - - - - - - -
19/02:00pm 22.6 ESE 22 26 1021.8 - - - - - - - - -
19/01:30pm 22.9 ESE 21 24 1022.2 - - - - - - - - -
19/01:00pm 22.7 ESE 21 23 1022.6 - - - - - - - - -
19/12:30pm 22.8 ESE 21 25 1022.9 - - - - - - - - -
19/12:00pm 22.4 SE 22 25 1023.2 - - - - - - - - -
19/11:30am 22.6 ESE 21 25 1023.7 - - - - - - - - -
19/11:00am 22.8 ESE 22 25 1024.0 - - - - - - - - -
19/10:30am 22.7 ESE 21 25 1024.2 - - - - - - - - -
19/10:00am 22.5 SE 21 25 1024.5 - - - - - - - - -
19/09:30am 22.6 ESE 21 24 1024.7 - - - - - - - - -
19/09:00am 23.2 ESE 22 26 1024.7 - - - - - - - - -
19/08:30am 22.6 ESE 23 27 1024.6 - - - - - - - - -
19/08:00am 22.2 ESE 23 26 1024.6 - - - - - - - - -
19/07:30am 21.1 SE 19 22 1024.5 - - - - - - - - -
19/07:00am 21.0 SSE 19 23 1024.1 - - - - - - - - -
19/06:30am 20.8 SSE 22 25 1023.9 - - - - - - - - -
19/06:14am 20.8 S 23 25 1023.5 - - - - - - - - -
19/06:00am 21.9 SE 22 25 1023.3 - - - - - - - - -
19/05:30am 21.9 SE 19 23 1023.1 - - - - - - - - -
19/05:00am 20.9 SE 18 20 1022.9 - - - - - - - - -
19/04:30am 20.9 SSE 17 20 1022.7 - - - - - - - - -
19/04:00am 21.0 SSE 18 22 1022.5 - - - - - - - - -
19/03:30am 21.3 SSE 20 24 1022.4 - - - - - - - - -
19/03:24am 21.5 SSE 20 23 1022.2 - - - - - - - - -
19/03:00am 21.8 SE 17 21 1022.3 - - - - - - - - -
19/02:30am 21.8 ESE 19 22 1022.5 - - - - - - - - -
19/02:00am 21.8 ESE 20 23 1022.6 - - - - - - - - -
19/01:30am 21.9 ESE 20 23 1022.5 - - - - - - - - -
19/01:00am 21.9 ESE 22 26 1022.8 - - - - - - - - -
19/12:30am 21.9 ESE 23 27 1022.8 - - - - - - - - -
19/12:00am 21.9 ESE 21 25 1023.2 - - - - - - - - -
 
Date/Time
EST
Temp

°C
Wind Pressure Rain
since 9am
mm
Weather Cloud Vis
km
Sea
Height
m
Swell
Dir
 
Speed
knots
Gust
knots
hPa Trend Height
m
Period
s
Dir
18/11:30pm 22.1 ESE 22 26 1023.3 - - - - - - - - -
18/11:00pm 22.0 ESE 22 26 1023.6 - - - - - - - - -
18/10:30pm 22.1 ESE 22 24 1023.6 - - - - - - - - -
18/10:00pm 22.1 ESE 23 26 1023.7 - - - - - - - - -
18/09:30pm 21.9 ESE 21 26 1023.8 - - - - - - - - -
18/09:00pm 22.4 ESE 22 26 1023.6 - - - - - - - - -

Other Formats:

Comma delimited format used in spreadsheet applications
http://www.bom.gov.au/fwo/IDQ60701/IDQ60701.94378.axf

JavaScript Object Notation format (JSON) in row-major order
http://www.bom.gov.au/fwo/IDQ60701/IDQ60701.94378.json